Time,TemperatureF,DewpointF,PressureIn,WindDirection,WindDirectionDegrees,WindSpeedMPH,WindSpeedGustMPH,Humidity,HourlyPrecipIn,Conditions,Clouds,dailyrainin,SoftwareType,DateUTC
2013-03-27 00:04:00,50.0,45.4,29.84,SW,225,0.0,-999.0,84,-99.99,,,0.00,Acu-Link.com,2013-03-27 07:04:00,
2013-03-27 00:19:00,49.8,45.5,29.84,SSE,157,2.7,-999.0,85,-99.99,,,0.00,Acu-Link.com,2013-03-27 07:19:00,
2013-03-27 00:34:00,49.3,45.6,29.84,SW,225,1.7,-999.0,87,-99.99,,,0.00,Acu-Link.com,2013-03-27 07:34:00,
2013-03-27 00:49:00,48.7,45.3,29.85,SSW,202,1.7,-999.0,88,-99.99,,,0.00,Acu-Link.com,2013-03-27 07:49:00,
2013-03-27 01:04:00,48.6,45.5,29.84,SW,225,0.0,-999.0,89,-99.99,,,0.00,Acu-Link.com,2013-03-27 08:04:00,
2013-03-27 01:20:00,48.6,45.5,29.84,WSW,247,2.2,-999.0,89,-99.99,,,0.00,Acu-Link.com,2013-03-27 08:20:00,
2013-03-27 01:35:00,48.6,45.8,29.85,SSW,202,2.2,-999.0,90,-99.99,,,0.00,Acu-Link.com,2013-03-27 08:35:00,
2013-03-27 01:50:00,47.8,45.3,29.84,South,180,0.0,-999.0,91,-99.99,,,0.00,Acu-Link.com,2013-03-27 08:50:00,
2013-03-27 02:05:00,48.0,45.5,29.84,WSW,247,1.7,-999.0,91,-99.99,,,0.00,Acu-Link.com,2013-03-27 09:05:00,
2013-03-27 02:20:00,48.2,46.0,29.84,SSW,202,0.0,-999.0,92,-99.99,,,0.00,Acu-Link.com,2013-03-27 09:20:00,
2013-03-27 02:36:00,48.0,45.8,29.83,WSW,247,0.0,-999.0,92,-99.99,,,0.00,Acu-Link.com,2013-03-27 09:36:00,
2013-03-27 03:23:00,48.6,46.7,29.83,SW,225,0.0,-999.0,93,-99.99,,,0.00,Acu-Link.com,2013-03-27 10:23:00,
2013-03-27 03:38:00,48.9,46.4,29.83,SW,225,0.0,-999.0,91,-99.99,,,0.00,Acu-Link.com,2013-03-27 10:38:00,
2013-03-27 03:54:00,49.3,46.8,29.83,WNW,292,0.0,-999.0,91,-99.99,,,0.00,Acu-Link.com,2013-03-27 10:54:00,
2013-03-27 04:09:00,49.6,46.8,29.83,ESE,112,1.7,-999.0,90,-99.99,,,0.00,Acu-Link.com,2013-03-27 11:09:00,
2013-03-27 04:24:00,49.8,46.7,29.82,SSE,157,0.0,-999.0,89,-99.99,,,0.00,Acu-Link.com,2013-03-27 11:24:00,
2013-03-27 04:40:00,49.8,46.7,29.83,SE,135,0.0,-999.0,89,-99.99,,,0.00,Acu-Link.com,2013-03-27 11:40:00,
2013-03-27 04:55:00,49.8,46.7,29.82,East,90,0.0,-999.0,89,-99.99,,,0.00,Acu-Link.com,2013-03-27 11:55:00,
2013-03-27 05:10:00,50.0,46.9,29.83,SSE,157,0.0,-999.0,89,-99.99,,,0.00,Acu-Link.com,2013-03-27 12:10:00,
2013-03-27 05:25:00,50.0,46.6,29.83,South,180,0.0,-999.0,88,-99.99,,,0.00,Acu-Link.com,2013-03-27 12:25:00,
2013-03-27 05:40:00,50.2,46.8,29.84,ESE,112,0.0,-999.0,88,-99.99,,,0.00,Acu-Link.com,2013-03-27 12:40:00,
2013-03-27 05:56:00,50.2,46.8,29.83,SW,225,0.0,-999.0,88,-99.99,,,0.00,Acu-Link.com,2013-03-27 12:56:00,
2013-03-27 06:26:00,50.4,46.7,29.82,SE,135,0.0,-999.0,87,-99.99,,,0.00,Acu-Link.com,2013-03-27 13:26:00,
2013-03-27 06:44:00,50.2,46.5,29.83,ESE,112,0.0,-999.0,87,-99.99,,,0.00,Acu-Link.com,2013-03-27 13:44:00,
2013-03-27 06:59:00,50.0,46.3,29.82,ESE,112,0.0,-999.0,87,-99.99,,,0.00,Acu-Link.com,2013-03-27 13:59:00,
2013-03-27 07:14:00,50.0,46.3,29.84,ESE,112,0.0,-999.0,87,-99.99,,,0.00,Acu-Link.com,2013-03-27 14:14:00,
2013-03-27 07:30:00,50.5,46.8,29.84,SW,225,1.7,-999.0,87,-99.99,,,0.00,Acu-Link.com,2013-03-27 14:30:00,
2013-03-27 07:45:00,51.1,46.7,29.84,West,270,0.0,-999.0,85,-99.99,,,0.00,Acu-Link.com,2013-03-27 14:45:00,
2013-03-27 08:00:00,51.8,47.1,29.84,SSE,157,0.0,-999.0,84,-99.99,,,0.00,Acu-Link.com,2013-03-27 15:00:00,
2013-03-27 08:16:00,52.7,47.4,29.86,ESE,112,0.0,-999.0,82,-99.99,,,0.00,Acu-Link.com,2013-03-27 15:16:00,
2013-03-27 08:46:00,57.0,48.1,29.85,East,90,2.2,-999.0,72,-99.99,,,0.00,Acu-Link.com,2013-03-27 15:46:00,
2013-03-27 09:16:00,57.0,48.4,29.85,SSW,202,0.0,-999.0,73,-99.99,,,0.00,Acu-Link.com,2013-03-27 16:16:00,
2013-03-27 09:32:00,56.8,48.6,29.85,ESE,112,0.0,-999.0,74,-99.99,,,0.00,Acu-Link.com,2013-03-27 16:32:00,
2013-03-27 09:47:00,58.8,49.4,29.86,SSE,157,0.0,-999.0,71,-99.99,,,0.00,Acu-Link.com,2013-03-27 16:47:00,
2013-03-27 10:05:00,59.4,49.6,29.85,NNE,22,1.1,-999.0,70,-99.99,,,0.00,Acu-Link.com,2013-03-27 17:05:00,
2013-03-27 10:20:00,59.5,50.1,29.86,East,90,3.7,-999.0,71,-99.99,,,0.00,Acu-Link.com,2013-03-27 17:20:00,
2013-03-27 10:35:00,60.1,50.3,29.86,NE,45,2.2,-999.0,70,-99.99,,,0.00,Acu-Link.com,2013-03-27 17:35:00,
2013-03-27 10:50:00,59.4,50.0,29.86,East,90,0.0,-999.0,71,-99.99,,,0.00,Acu-Link.com,2013-03-27 17:50:00,
2013-03-27 11:06:00,60.6,50.4,29.86,NNE,22,2.7,-999.0,69,-99.99,,,0.00,Acu-Link.com,2013-03-27 18:06:00,
2013-03-27 11:21:00,61.7,50.6,29.87,NE,45,3.2,-999.0,67,-99.99,,,0.00,Acu-Link.com,2013-03-27 18:21:00,
2013-03-27 11:36:00,62.2,51.1,29.87,SE,135,0.0,-999.0,67,-99.99,,,0.00,Acu-Link.com,2013-03-27 18:36:00,
2013-03-27 11:51:00,64.9,51.6,29.85,SSE,157,2.7,-999.0,62,-99.99,,,0.00,Acu-Link.com,2013-03-27 18:51:00,
2013-03-27 12:06:00,62.8,51.3,29.85,ESE,112,2.7,-999.0,66,-99.99,,,0.00,Acu-Link.com,2013-03-27 19:06:00,
2013-03-27 12:22:00,63.5,51.5,29.87,NE,45,2.7,-999.0,65,-99.99,,,0.00,Acu-Link.com,2013-03-27 19:22:00,
2013-03-27 12:37:00,64.2,51.3,29.85,ESE,112,1.7,-999.0,63,-99.99,,,0.00,Acu-Link.com,2013-03-27 19:37:00,
2013-03-27 12:52:00,64.2,51.3,29.85,SSE,157,3.7,-999.0,63,-99.99,,,0.00,Acu-Link.com,2013-03-27 19:52:00,
2013-03-27 13:07:00,64.6,51.3,29.84,West,270,2.7,-999.0,62,-99.99,,,0.00,Acu-Link.com,2013-03-27 20:07:00,
2013-03-27 13:23:00,65.5,51.7,29.85,West,270,3.7,-999.0,61,-99.99,,,0.00,Acu-Link.com,2013-03-27 20:23:00,
2013-03-27 13:38:00,64.9,51.6,29.85,South,180,6.3,-999.0,62,-99.99,,,0.00,Acu-Link.com,2013-03-27 20:38:00,
2013-03-27 13:53:00,67.8,52.9,29.85,SSW,202,7.8,-999.0,59,-99.99,,,0.00,Acu-Link.com,2013-03-27 20:53:00,
2013-03-27 14:08:00,68.9,53.5,29.84,West,270,5.3,-999.0,58,-99.99,,,0.00,Acu-Link.com,2013-03-27 21:08:00,
2013-03-27 14:25:00,68.4,53.0,29.84,SSE,157,3.7,-999.0,58,-99.99,,,0.00,Acu-Link.com,2013-03-27 21:25:00,
2013-03-27 14:40:00,67.1,52.7,29.84,SW,225,4.7,-999.0,60,-99.99,,,0.00,Acu-Link.com,2013-03-27 21:40:00,
2013-03-27 14:55:00,67.3,52.9,29.83,SSW,202,5.3,-999.0,60,-99.99,,,0.00,Acu-Link.com,2013-03-27 21:55:00,
2013-03-27 15:11:00,66.0,53.0,29.84,NNW,337,8.3,-999.0,63,-99.99,,,0.00,Acu-Link.com,2013-03-27 22:11:00,
2013-03-27 15:26:00,66.2,52.8,29.84,SW,225,7.3,-999.0,62,-99.99,,,0.00,Acu-Link.com,2013-03-27 22:26:00,
2013-03-27 16:11:00,64.2,53.0,29.83,West,270,6.3,-999.0,67,-99.99,,,0.00,Acu-Link.com,2013-03-27 23:11:00,
2013-03-27 16:27:00,63.9,53.9,29.83,SW,225,6.3,-999.0,70,-99.99,,,0.00,Acu-Link.com,2013-03-27 23:27:00,
2013-03-27 16:57:00,61.2,52.5,29.84,WNW,292,5.3,-999.0,73,-99.99,,,0.00,Acu-Link.com,2013-03-27 23:57:00,
2013-03-27 17:12:00,61.0,53.4,29.83,SW,225,2.7,-999.0,76,-99.99,,,0.00,Acu-Link.com,2013-03-28 00:12:00,
2013-03-27 17:27:00,59.7,52.5,29.84,South,180,4.2,-999.0,77,-99.99,,,0.00,Acu-Link.com,2013-03-28 00:27:00,
2013-03-27 17:43:00,61.3,52.9,29.84,WNW,292,5.8,-999.0,74,-99.99,,,0.00,Acu-Link.com,2013-03-28 00:43:00,
2013-03-27 17:58:00,60.3,53.4,29.83,WSW,247,4.2,-999.0,78,-99.99,,,0.00,Acu-Link.com,2013-03-28 00:58:00,
2013-03-27 18:13:00,58.5,53.4,29.83,WSW,247,4.2,-999.0,83,-99.99,,,0.00,Acu-Link.com,2013-03-28 01:13:00,
2013-03-27 18:28:00,57.6,53.1,29.83,SSW,202,2.7,-999.0,85,-99.99,,,0.00,Acu-Link.com,2013-03-28 01:28:00,
2013-03-27 18:43:00,56.8,52.3,29.83,SSW,202,2.7,-999.0,85,-99.99,,,0.00,Acu-Link.com,2013-03-28 01:43:00,
2013-03-27 18:59:00,56.1,52.0,29.83,SSW,202,3.2,-999.0,86,-99.99,,,0.00,Acu-Link.com,2013-03-28 01:59:00,
2013-03-27 19:14:00,55.6,51.5,29.84,SW,225,1.1,-999.0,86,-99.99,,,0.00,Acu-Link.com,2013-03-28 02:14:00,
2013-03-27 19:29:00,54.9,51.4,29.85,SSW,202,2.2,-999.0,88,-99.99,,,0.00,Acu-Link.com,2013-03-28 02:29:00,
2013-03-27 19:45:00,54.3,51.1,29.83,SW,225,1.1,-999.0,89,-99.99,,,0.00,Acu-Link.com,2013-03-28 02:45:00,
2013-03-27 20:00:00,54.1,50.6,29.84,WSW,247,0.0,-999.0,88,-99.99,,,0.00,Acu-Link.com,2013-03-28 03:00:00,
2013-03-27 20:15:00,54.0,50.8,29.84,WSW,247,0.0,-999.0,89,-99.99,,,0.00,Acu-Link.com,2013-03-28 03:15:00,
2013-03-27 20:30:00,54.3,51.1,29.84,West,270,2.2,-999.0,89,-99.99,,,0.00,Acu-Link.com,2013-03-28 03:30:00,
2013-03-27 20:45:00,54.7,51.5,29.85,WSW,247,2.2,-999.0,89,-99.99,,,0.00,Acu-Link.com,2013-03-28 03:45:00,
2013-03-27 21:01:00,54.1,51.2,29.86,SSW,202,1.1,-999.0,90,-99.99,,,0.00,Acu-Link.com,2013-03-28 04:01:00,
2013-03-27 21:46:00,52.9,51.2,29.87,NNW,337,0.0,-999.0,94,-99.99,,,0.00,Acu-Link.com,2013-03-28 04:46:00,
2013-03-27 22:02:00,52.5,50.5,29.86,SW,225,0.0,-999.0,93,-99.99,,,0.00,Acu-Link.com,2013-03-28 05:02:00,
2013-03-27 22:17:00,52.5,50.5,29.86,West,270,1.7,-999.0,93,-99.99,,,0.00,Acu-Link.com,2013-03-28 05:17:00,
2013-03-27 22:32:00,54.0,51.4,29.88,South,180,0.0,-999.0,91,-99.99,,,0.00,Acu-Link.com,2013-03-28 05:32:00,
2013-03-27 22:47:00,54.3,51.1,29.87,WSW,247,2.2,-999.0,89,-99.99,,,0.00,Acu-Link.com,2013-03-28 05:47:00,
2013-03-27 23:03:00,55.2,51.4,29.87,South,180,1.7,-999.0,87,-99.99,,,0.00,Acu-Link.com,2013-03-28 06:03:00,
2013-03-27 23:18:00,54.9,51.4,29.87,SW,225,1.7,-999.0,88,-99.99,,,0.00,Acu-Link.com,2013-03-28 06:18:00,
2013-03-27 23:33:00,54.5,51.3,29.87,SW,225,1.1,-999.0,89,-99.99,,,0.00,Acu-Link.com,2013-03-28 06:33:00,
2013-03-27 23:48:00,55.0,51.8,29.88,SW,225,0.0,-999.0,89,-99.99,,,0.00,Acu-Link.com,2013-03-28 06:48:00,